Terminal Aerodrome Forecast
Issued by NWS

Home | Current Version | Previous Version | Graphics & Text | Print | Product List | Glossary On
Versions: 1 2 3 4 5 6 7 8 9 10 11 12 13
000
FTUS45 KGGW 221122
TAFSDY
TAF
KSDY 221122Z 2212/2312 16013KT P6SM OVC023
     FM221400 15010KT P6SM BKN035
     FM222100 20008KT P6SM SCT090
     FM230100 18004KT P6SM FEW140
     FM230900 24004KT P6SM BKN110=

USA.gov is the U.S. government's official web portal to all federal, state and local government web resources and services.